Pagina principale
METAR-TAF:

METAR-TAF

Aeroporti :

Curaçao, Antille olandesi

Aeroporto Internazionale di Hato

latitudine: 12-12N, longitudine: 068-58W, altezza: 9 m

Osservazione

Il bollettino è stato emesso 12 minuti fa, alle 01:00 UTC
Vento 12 kt da est
Temperature 27°C
Umidità 74%
Pressione 1013 hPa
Visibilità 10 km o più

METAR: TNCC 240100Z AUTO 10012KT 9999 NCD 27/22 Q1013 NOSIG

Ora: 21:12 (01:12 UTC)

Previsione

Il bollettino è stato emesso 3 ore e 12 minuti fa, alle 22:00 UTC
Previsione valida dal 24 alle 00 UTC al 24 alle 24 UTC
Vento 14 kt da est
Visibilità 10 km o più
Nubi sparse ad un'altezza di 2000 ft
Probabilità 30% :
Temporaneamente
dal 24 alle 06 UTC al 24 alle 16 UTC
Visibilità: 8000 m
Nuvoloso ad un'altezza di 1500 ft
rovesci di pioggia

TAF: TNCC 232200Z 2400/2424 10014KT 9999 SCT020 PROB30 TEMPO 2406/2416 8000 -SHRA BKN015

Osservazioni e previsioni meteorologiche di più di 4000 aeroporti (messaggi METAR e TAF).

Le stazioni disponibili sono rappresentate dai dischi gialli e rossi sulla carta.

Puntare il mouse per vedere il nome della stazione.

Clicca sopra per visualizzare le osservazioni e previsioni meteorologiche.

Per cambiare la mappa : fare clic sui pulsanti verdi con una croce nera per ingrandire, il pulsante verde con un trattino per diminuire, o sulla freccia verde per le mappe adiacenti.


METAR-TAF: